Ashiya — JD2302 — position and weather

sailwx.info

Track history (hours):
 
Tides and Currents Weather Stations Pressure Air Temp Water Temp Dewpoint Dewpoint Depression Visibility Wind Speed Wind Dir Waves Ship Positions

Ashiya

Last reported at 2018-Jul-16 11:19 UTC. Time now 2018-Jul-17 15:27 UTC.
Position N 34°24' E 134°14'.

Length 96 m; draft 4.5 m.

Type: Cargo ship. MMSI: 431501871.

Date/timePositionNaut miles runAvg speedWind from/ knotsBaromVisibWave heightAir tempDewpointWater temp
2018-Jul-16 11:19N 34°24' E 134°14'512.9
2018-Jul-16 10:57N 34°25' E 134°19'612.6
2018-Jul-16 10:31N 34°27' E 134°26'612.3
2018-Jul-16 10:01N 34°30' E 134°33'611.8
2018-Jul-16 09:30N 34°32' E 134°39'611.7
2018-Jul-16 09:00N 34°34' E 134°46'611.2
2018-Jul-16 08:31N 34°35' E 134°53'510.4
2018-Jul-16 08:00N 34°37' E 134°58'3 6.9
2018-Jul-16 07:30N 34°37' E 135°03'3 6.9
2018-Jul-16 07:00N 34°36' E 135°07'611.1
2018-Jul-16 06:30N 34°37' E 135°13'3 5.9
2018-Jul-16 06:00N 34°40' E 135°14'0 0.0
2018-Jul-16 05:29N 34°40' E 135°14'0 0.0
2018-Jul-16 04:56N 34°40' E 135°14'0 0.0
2018-Jul-16 04:29N 34°40' E 135°14'1 1.2
2018-Jul-16 04:00N 34°40' E 135°15'2 3.9
2018-Jul-16 03:30N 34°41' E 135°17'0 0.0
2018-Jul-16 03:01N 34°41' E 135°17'0 0.0
2018-Jul-16 02:30N 34°41' E 135°17'1 1.6
2018-Jul-16 02:00N 34°41' E 135°16'3 5.3
2018-Jul-16 01:29N 34°41' E 135°12'0 0.0
2018-Jul-16 00:59N 34°41' E 135°12'0 0.0
2018-Jul-16 00:29N 34°41' E 135°12'0 0.0
2018-Jul-15 23:59N 34°41' E 135°12'0 0.0
2018-Jul-15 23:29N 34°41' E 135°12'0 0.0
2018-Jul-15 22:47N 34°41' E 135°12'0 0.0
2018-Jul-15 22:29N 34°41' E 135°12'0 0.0
2018-Jul-15 21:59N 34°41' E 135°12'0 0.0
2018-Jul-15 21:29N 34°41' E 135°12'0 0.0
2018-Jul-15 20:41N 34°41' E 135°12'0 0.0
2018-Jul-15 20:29N 34°41' E 135°12'0 0.0
2018-Jul-15 19:59N 34°41' E 135°12'0 0.0
2018-Jul-15 19:29N 34°41' E 135°12'0 0.0
2018-Jul-15 18:47N 34°41' E 135°12'0 0.0
2018-Jul-15 18:29N 34°41' E 135°12'0 0.0
2018-Jul-15 17:59N 34°41' E 135°12'0 0.0
2018-Jul-15 17:29N 34°41' E 135°12'0 0.0
2018-Jul-15 16:59N 34°41' E 135°12'0 0.0
2018-Jul-15 16:29N 34°41' E 135°12'0 0.0
2018-Jul-15 15:59N 34°41' E 135°12'0 0.0
2018-Jul-15 15:29N 34°41' E 135°12'0 0.0
2018-Jul-15 14:59N 34°41' E 135°12'0 0.0
2018-Jul-15 14:23N 34°41' E 135°12'0 0.0
2018-Jul-15 13:59N 34°41' E 135°12'0 0.0
2018-Jul-15 13:29N 34°41' E 135°12'0 0.0
2018-Jul-15 12:53N 34°41' E 135°12'0 0.0
2018-Jul-15 12:29N 34°41' E 135°12'0 0.0
2018-Jul-15 11:59N 34°41' E 135°12'0 0.0
2018-Jul-15 11:29N 34°41' E 135°12'0 0.0
2018-Jul-15 10:59N 34°41' E 135°12'0 0.0
2018-Jul-15 10:23N 34°41' E 135°12'0 0.0
2018-Jul-15 09:50N 34°41' E 135°12'0 0.0
2018-Jul-15 09:29N 34°41' E 135°12'0 0.0
2018-Jul-15 08:59N 34°41' E 135°12'0 0.0
2018-Jul-15 08:29N 34°41' E 135°12'0 0.0
2018-Jul-15 07:53N 34°41' E 135°12'0 0.0
2018-Jul-15 07:29N 34°41' E 135°12'0 0.0
2018-Jul-15 06:59N 34°41' E 135°12'0 0.0
2018-Jul-15 06:29N 34°41' E 135°12'0 0.0
2018-Jul-15 05:59N 34°41' E 135°12'0 0.0
2018-Jul-15 05:29N 34°41' E 135°12'0 0.0
2018-Jul-15 04:53N 34°41' E 135°12'0 0.0
2018-Jul-15 04:29N 34°41' E 135°12'0 0.0
2018-Jul-15 03:47N 34°41' E 135°12'0 0.0
2018-Jul-15 03:29N 34°41' E 135°12'0 0.0
2018-Jul-15 02:59N 34°41' E 135°12'0 0.0
2018-Jul-15 02:29N 34°41' E 135°12'0 0.0
2018-Jul-15 01:59N 34°41' E 135°12'0 0.0
2018-Jul-15 01:29N 34°41' E 135°12'0 0.0
2018-Jul-15 00:59N 34°41' E 135°12'0 0.0
2018-Jul-15 00:28N 34°41' E 135°12'0 0.0
2018-Jul-14 23:59N 34°41' E 135°12'0 0.0
2018-Jul-14 23:23N 34°41' E 135°12'0 1.2
2018-Jul-14 23:00N 34°41' E 135°13'4 8.9
2018-Jul-14 22:30N 34°37' E 135°15'0 0.0
2018-Jul-14 21:52N 34°37' E 135°15'0 0.0
2018-Jul-14 21:22N 34°37' E 135°15'0 0.0
2018-Jul-14 20:58N 34°37' E 135°15'0 0.1
2018-Jul-14 20:28N 34°37' E 135°15'0 0.0
2018-Jul-14 19:58N 34°37' E 135°15'0 0.1
2018-Jul-14 19:28N 34°37' E 135°15'0 0.0
2018-Jul-14 18:58N 34°37' E 135°15'0 0.1
2018-Jul-14 18:28N 34°37' E 135°15'0 0.0
2018-Jul-14 17:58N 34°37' E 135°15'0 0.0
2018-Jul-14 17:28N 34°37' E 135°15'0 0.2
2018-Jul-14 17:01N 34°37' E 135°15'713.1
2018-Jul-14 16:30N 34°35' E 135°07'612.6
2018-Jul-14 16:00N 34°37' E 135°00'612.4
2018-Jul-14 15:30N 34°35' E 134°53'510.7
2018-Jul-14 15:00N 34°33' E 134°47'511.1
2018-Jul-14 14:30N 34°30' E 134°41'1212.3
2018-Jul-14 13:30N 34°26' E 134°27'611.8
2018-Jul-14 13:00N 34°24' E 134°20'611.0
2018-Jul-14 12:28N 34°24' E 134°13'5 9.8
2018-Jul-14 11:55N 34°26' E 134°07'5 9.5
2018-Jul-14 11:25N 34°25' E 134°01'18 0.6
2018-Jul-13 06:37N 34°25' E 134°23'311.8
2018-Jul-13 06:22N 34°26' E 134°26'412.1
2018-Jul-13 06:00N 34°28' E 134°31'611.7
2018-Jul-13 05:30N 34°30' E 134°38'611.7
2018-Jul-13 05:00N 34°32' E 134°44'510.8
2018-Jul-13 04:30N 34°34' E 134°50'5 9.0
2018-Jul-13 04:00N 34°36' E 134°55'5 8.5
2018-Jul-13 03:24N 34°37' E 135°01'3 8.2
2018-Jul-13 03:00N 34°36' E 135°05'611.3
2018-Jul-13 02:30N 34°37' E 135°12'612.0
2018-Jul-13 02:01N 34°39' E 135°18'2 4.5
2018-Jul-13 01:30N 34°41' E 135°17'2 4.5
2018-Jul-13 01:00N 34°40' E 135°14'0 0.1
2018-Jul-13 00:30N 34°40' E 135°14'0 0.3
2018-Jul-13 00:00N 34°40' E 135°14'2 4.6
2018-Jul-12 23:30N 34°38' E 135°16'1 1.5
2018-Jul-12 22:44N 34°37' E 135°15'0 0.0
2018-Jul-12 22:29N 34°37' E 135°15'0 0.0
2018-Jul-12 21:50N 34°37' E 135°15'0 0.0
2018-Jul-12 21:29N 34°37' E 135°15'0 0.0
2018-Jul-12 20:56N 34°37' E 135°15'0 0.0
2018-Jul-12 20:29N 34°37' E 135°15'0 0.1
2018-Jul-12 19:59N 34°37' E 135°15'0 0.2
2018-Jul-12 19:29N 34°37' E 135°15'0 0.0
2018-Jul-12 18:59N 34°37' E 135°15'0 0.0
2018-Jul-12 18:29N 34°37' E 135°15'0 0.0
2018-Jul-12 17:59N 34°37' E 135°15'0 0.0
2018-Jul-12 17:29N 34°37' E 135°15'0 0.1
2018-Jul-12 17:00N 34°37' E 135°15'4 9.0
2018-Jul-12 16:30N 34°35' E 135°10'510.7
2018-Jul-12 16:00N 34°35' E 135°04'612.4
2018-Jul-12 15:30N 34°36' E 134°56'611.7
2018-Jul-12 14:59N 34°33' E 134°49'611.8
2018-Jul-12 14:30N 34°31' E 134°43'612.1
2018-Jul-12 14:00N 34°29' E 134°36'612.7
2018-Jul-12 13:30N 34°26' E 134°29'612.1
2018-Jul-12 13:00N 34°24' E 134°22'611.3
2018-Jul-12 12:28N 34°24' E 134°15'5 0.2
2018-Jul-11 10:11N 34°25' E 134°20'413.3
2018-Jul-11 09:54N 34°26' E 134°25'513.6
2018-Jul-11 09:30N 34°28' E 134°31'713.5
2018-Jul-11 09:00N 34°31' E 134°38'713.6
2018-Jul-11 08:31N 34°33' E 134°46'815.3
2018-Jul-11 08:01N 34°36' E 134°54'713.6
2018-Jul-11 07:30N 34°36' E 135°03'611.9
2018-Jul-11 07:00N 34°36' E 135°10'611.6
2018-Jul-11 06:30N 34°38' E 135°17'3 5.7
2018-Jul-11 06:00N 34°41' E 135°17'0 0.0
2018-Jul-11 05:30N 34°41' E 135°17'0 0.7
2018-Jul-11 05:00N 34°41' E 135°16'2 3.9
2018-Jul-11 04:30N 34°39' E 135°15'0 0.9
2018-Jul-11 04:00N 34°39' E 135°15'2 4.7
2018-Jul-11 03:30N 34°37' E 135°15'0 0.0
2018-Jul-11 02:57N 34°37' E 135°15'0 0.1
2018-Jul-11 02:27N 34°37' E 135°15'0 0.0
2018-Jul-11 02:00N 34°37' E 135°15'0 0.0
2018-Jul-11 01:27N 34°37' E 135°15'0 0.0
2018-Jul-11 00:57N 34°37' E 135°15'0 0.0
2018-Jul-11 00:27N 34°37' E 135°15'1 1.6
2018-Jul-11 00:00N 34°36' E 135°14'612.3
2018-Jul-10 23:30N 34°35' E 135°07'611.8
2018-Jul-10 23:00N 34°37' E 135°00'611.8
2018-Jul-10 22:30N 34°35' E 134°53'810.9
2018-Jul-10 21:46N 34°32' E 134°45'311.5
2018-Jul-10 21:30N 34°31' E 134°41'611.9
2018-Jul-10 21:00N 34°28' E 134°34'612.1
2018-Jul-10 20:30N 34°26' E 134°28'712.1
2018-Jul-10 19:58N 34°24' E 134°20'2 0.1
2018-Jul-09 11:12N 34°25' E 134°18'313.1
2018-Jul-09 11:00N 34°25' E 134°22'612.5
2018-Jul-09 10:30N 34°28' E 134°29'612.4
2018-Jul-09 10:00N 34°30' E 134°36'612.5
2018-Jul-09 09:30N 34°32' E 134°43'714.4
2018-Jul-09 09:00N 34°35' E 134°51'815.2
2018-Jul-09 08:30N 34°38' E 134°60'713.2
2018-Jul-09 08:00N 34°37' E 135°07'611.7
2018-Jul-09 07:29N 34°37' E 135°15'3 5.4
2018-Jul-09 07:01N 34°40' E 135°14'0 0.0
2018-Jul-09 06:20N 34°40' E 135°14'0 0.0
2018-Jul-09 05:56N 34°40' E 135°14'0 0.0
2018-Jul-09 05:26N 34°40' E 135°14'0 0.0
2018-Jul-09 04:56N 34°40' E 135°14'0 0.0
2018-Jul-09 04:26N 34°40' E 135°14'0 0.0
2018-Jul-09 03:56N 34°40' E 135°14'1 1.8
2018-Jul-09 03:31N 34°40' E 135°15'1 2.9
2018-Jul-09 03:00N 34°41' E 135°16'0 0.6
2018-Jul-09 02:30N 34°41' E 135°17'0 0.0
2018-Jul-09 02:01N 34°41' E 135°17'0 0.3
2018-Jul-09 01:31N 34°41' E 135°17'1 1.7
2018-Jul-09 01:01N 34°41' E 135°18'510.0
2018-Jul-09 00:31N 34°37' E 135°14'4 7.3
2018-Jul-09 00:00N 34°40' E 135°11'0 0.0
2018-Jul-08 23:18N 34°40' E 135°11'0 0.0
2018-Jul-08 23:00N 34°40' E 135°11'0 0.0
2018-Jul-08 22:27N 34°40' E 135°11'0 0.0
2018-Jul-08 21:54N 34°40' E 135°11'0 0.0
2018-Jul-08 21:30N 34°40' E 135°11'0 0.0
2018-Jul-08 21:00N 34°40' E 135°11'0 0.0
2018-Jul-08 20:30N 34°40' E 135°11'0 0.0
2018-Jul-08 20:00N 34°40' E 135°11'0 0.0
2018-Jul-08 19:30N 34°40' E 135°11'0 0.0
2018-Jul-08 19:00N 34°40' E 135°11'0 0.0
2018-Jul-08 18:30N 34°40' E 135°11'0 0.0
2018-Jul-08 18:00N 34°40' E 135°11'0 0.0
2018-Jul-08 17:24N 34°40' E 135°11'0 0.0
2018-Jul-08 17:00N 34°40' E 135°11'0 0.0
2018-Jul-08 16:27N 34°40' E 135°11'0 0.0
2018-Jul-08 16:00N 34°40' E 135°11'0 0.0
2018-Jul-08 15:30N 34°40' E 135°11'0 0.0
2018-Jul-08 15:00N 34°40' E 135°11'0 0.0
2018-Jul-08 14:30N 34°40' E 135°11'0 0.0
2018-Jul-08 14:00N 34°40' E 135°11'0 0.0
2018-Jul-08 13:30N 34°40' E 135°11'0 0.0
2018-Jul-08 13:00N 34°40' E 135°11'0 0.0
2018-Jul-08 12:15N 34°40' E 135°11'0 0.0
2018-Jul-08 12:00N 34°40' E 135°11'0 0.0
2018-Jul-08 11:30N 34°40' E 135°11'0 0.0
2018-Jul-08 11:00N 34°40' E 135°11'0 0.0
2018-Jul-08 10:30N 34°40' E 135°11'0 0.0
2018-Jul-08 10:00N 34°40' E 135°11'0 0.0
2018-Jul-08 09:30N 34°40' E 135°11'0 0.0
2018-Jul-08 08:57N 34°40' E 135°11'0 0.0
2018-Jul-08 08:30N 34°40' E 135°11'0 0.0
2018-Jul-08 08:00N 34°40' E 135°11'0 0.0
2018-Jul-08 07:30N 34°40' E 135°11'0 0.0
2018-Jul-08 07:00N 34°40' E 135°11'0 0.0
2018-Jul-08 06:30N 34°40' E 135°11'0 0.0
2018-Jul-08 06:00N 34°40' E 135°11'0 0.0
2018-Jul-08 05:30N 34°40' E 135°11'0 0.0
2018-Jul-08 05:00N 34°40' E 135°11'0 0.0
2018-Jul-08 04:30N 34°40' E 135°11'0 0.0
2018-Jul-08 04:00N 34°40' E 135°11'0 0.0
2018-Jul-08 03:30N 34°40' E 135°11'0 0.0
2018-Jul-08 03:00N 34°40' E 135°11'0 0.0
2018-Jul-08 02:30N 34°40' E 135°11'0 0.0
2018-Jul-08 02:00N 34°40' E 135°11'0 0.0
2018-Jul-08 01:30N 34°40' E 135°11'0 0.0
2018-Jul-08 01:00N 34°40' E 135°11'0 0.0
2018-Jul-08 00:30N 34°40' E 135°11'0 0.0
2018-Jul-07 23:54N 34°40' E 135°11'0 0.0
2018-Jul-07 23:30N 34°40' E 135°11'0 0.0
2018-Jul-07 23:00N 34°40' E 135°11'4 8.0
2018-Jul-07 22:30N 34°37' E 135°08'0 0.1
2018-Jul-07 21:59N 34°37' E 135°08'0 0.0
2018-Jul-07 21:29N 34°37' E 135°08'0 0.0
2018-Jul-07 20:56N 34°37' E 135°08'0 0.0
2018-Jul-07 20:20N 34°37' E 135°08'0 0.1
2018-Jul-07 19:59N 34°37' E 135°08'0 0.1
2018-Jul-07 19:29N 34°37' E 135°08'4 7.5
2018-Jul-07 19:00N 34°35' E 135°04'5 9.4
2018-Jul-07 18:28N 34°37' E 134°59'510.4
2018-Jul-07 18:00N 34°35' E 134°54'710.5
2018-Jul-07 17:20N 34°32' E 134°46'411.8
2018-Jul-07 17:00N 34°31' E 134°42'611.7
2018-Jul-07 16:30N 34°28' E 134°35'611.7
2018-Jul-07 16:00N 34°26' E 134°28'611.0
2018-Jul-07 15:28N 34°24' E 134°22'1 0.0
2018-Jul-06 12:26N 34°25' E 134°21'511.9
2018-Jul-06 12:00N 34°27' E 134°27'611.7
2018-Jul-06 11:30N 34°30' E 134°34'  
Track history (hours):
 
Tides and Currents Weather Stations Pressure Air Temp Water Temp Dewpoint Dewpoint Depression Visibility Wind Speed Wind Dir Waves Ship Positions

Ashiya

Last reported at 2018-Jul-16 11:19 UTC. Time now 2018-Jul-17 15:27 UTC.
Position N 34°24' E 134°14'.

Length 96 m; draft 4.5 m.

Type: Cargo ship. MMSI: 431501871.

Date/timePositionNaut miles runAvg speedWind from/ knotsBaromVisibWave heightAir tempDewpointWater temp
2018-Jul-16 11:19N 34°24' E 134°14'512.9
2018-Jul-16 10:57N 34°25' E 134°19'612.6
2018-Jul-16 10:31N 34°27' E 134°26'612.3
2018-Jul-16 10:01N 34°30' E 134°33'611.8
2018-Jul-16 09:30N 34°32' E 134°39'611.7
2018-Jul-16 09:00N 34°34' E 134°46'611.2
2018-Jul-16 08:31N 34°35' E 134°53'510.4
2018-Jul-16 08:00N 34°37' E 134°58'3 6.9
2018-Jul-16 07:30N 34°37' E 135°03'3 6.9
2018-Jul-16 07:00N 34°36' E 135°07'611.1
2018-Jul-16 06:30N 34°37' E 135°13'3 5.9
2018-Jul-16 06:00N 34°40' E 135°14'0 0.0
2018-Jul-16 05:29N 34°40' E 135°14'0 0.0
2018-Jul-16 04:56N 34°40' E 135°14'0 0.0
2018-Jul-16 04:29N 34°40' E 135°14'1 1.2
2018-Jul-16 04:00N 34°40' E 135°15'2 3.9
2018-Jul-16 03:30N 34°41' E 135°17'0 0.0
2018-Jul-16 03:01N 34°41' E 135°17'0 0.0
2018-Jul-16 02:30N 34°41' E 135°17'1 1.6
2018-Jul-16 02:00N 34°41' E 135°16'3 5.3
2018-Jul-16 01:29N 34°41' E 135°12'0 0.0
2018-Jul-16 00:59N 34°41' E 135°12'0 0.0
2018-Jul-16 00:29N 34°41' E 135°12'0 0.0
2018-Jul-15 23:59N 34°41' E 135°12'0 0.0
2018-Jul-15 23:29N 34°41' E 135°12'0 0.0
2018-Jul-15 22:47N 34°41' E 135°12'0 0.0
2018-Jul-15 22:29N 34°41' E 135°12'0 0.0
2018-Jul-15 21:59N 34°41' E 135°12'0 0.0
2018-Jul-15 21:29N 34°41' E 135°12'0 0.0
2018-Jul-15 20:41N 34°41' E 135°12'0 0.0
2018-Jul-15 20:29N 34°41' E 135°12'0 0.0
2018-Jul-15 19:59N 34°41' E 135°12'0 0.0
2018-Jul-15 19:29N 34°41' E 135°12'0 0.0
2018-Jul-15 18:47N 34°41' E 135°12'0 0.0
2018-Jul-15 18:29N 34°41' E 135°12'0 0.0
2018-Jul-15 17:59N 34°41' E 135°12'0 0.0
2018-Jul-15 17:29N 34°41' E 135°12'0 0.0
2018-Jul-15 16:59N 34°41' E 135°12'0 0.0
2018-Jul-15 16:29N 34°41' E 135°12'0 0.0
2018-Jul-15 15:59N 34°41' E 135°12'0 0.0
2018-Jul-15 15:29N 34°41' E 135°12'0 0.0
2018-Jul-15 14:59N 34°41' E 135°12'0 0.0
2018-Jul-15 14:23N 34°41' E 135°12'0 0.0
2018-Jul-15 13:59N 34°41' E 135°12'0 0.0
2018-Jul-15 13:29N 34°41' E 135°12'0 0.0
2018-Jul-15 12:53N 34°41' E 135°12'0 0.0
2018-Jul-15 12:29N 34°41' E 135°12'0 0.0
2018-Jul-15 11:59N 34°41' E 135°12'0 0.0
2018-Jul-15 11:29N 34°41' E 135°12'0 0.0
2018-Jul-15 10:59N 34°41' E 135°12'0 0.0
2018-Jul-15 10:23N 34°41' E 135°12'0 0.0
2018-Jul-15 09:50N 34°41' E 135°12'0 0.0
2018-Jul-15 09:29N 34°41' E 135°12'0 0.0
2018-Jul-15 08:59N 34°41' E 135°12'0 0.0
2018-Jul-15 08:29N 34°41' E 135°12'0 0.0
2018-Jul-15 07:53N 34°41' E 135°12'0 0.0
2018-Jul-15 07:29N 34°41' E 135°12'0 0.0
2018-Jul-15 06:59N 34°41' E 135°12'0 0.0
2018-Jul-15 06:29N 34°41' E 135°12'0 0.0
2018-Jul-15 05:59N 34°41' E 135°12'0 0.0
2018-Jul-15 05:29N 34°41' E 135°12'0 0.0
2018-Jul-15 04:53N 34°41' E 135°12'0 0.0
2018-Jul-15 04:29N 34°41' E 135°12'0 0.0
2018-Jul-15 03:47N 34°41' E 135°12'0 0.0
2018-Jul-15 03:29N 34°41' E 135°12'0 0.0
2018-Jul-15 02:59N 34°41' E 135°12'0 0.0
2018-Jul-15 02:29N 34°41' E 135°12'0 0.0
2018-Jul-15 01:59N 34°41' E 135°12'0 0.0
2018-Jul-15 01:29N 34°41' E 135°12'0 0.0
2018-Jul-15 00:59N 34°41' E 135°12'0 0.0
2018-Jul-15 00:28N 34°41' E 135°12'0 0.0
2018-Jul-14 23:59N 34°41' E 135°12'0 0.0
2018-Jul-14 23:23N 34°41' E 135°12'0 1.2
2018-Jul-14 23:00N 34°41' E 135°13'4 8.9
2018-Jul-14 22:30N 34°37' E 135°15'0 0.0
2018-Jul-14 21:52N 34°37' E 135°15'0 0.0
2018-Jul-14 21:22N 34°37' E 135°15'0 0.0
2018-Jul-14 20:58N 34°37' E 135°15'0 0.1
2018-Jul-14 20:28N 34°37' E 135°15'0 0.0
2018-Jul-14 19:58N 34°37' E 135°15'0 0.1
2018-Jul-14 19:28N 34°37' E 135°15'0 0.0
2018-Jul-14 18:58N 34°37' E 135°15'0 0.1
2018-Jul-14 18:28N 34°37' E 135°15'0 0.0
2018-Jul-14 17:58N 34°37' E 135°15'0 0.0
2018-Jul-14 17:28N 34°37' E 135°15'0 0.2
2018-Jul-14 17:01N 34°37' E 135°15'713.1
2018-Jul-14 16:30N 34°35' E 135°07'612.6
2018-Jul-14 16:00N 34°37' E 135°00'612.4
2018-Jul-14 15:30N 34°35' E 134°53'510.7
2018-Jul-14 15:00N 34°33' E 134°47'511.1
2018-Jul-14 14:30N 34°30' E 134°41'1212.3
2018-Jul-14 13:30N 34°26' E 134°27'611.8
2018-Jul-14 13:00N 34°24' E 134°20'611.0
2018-Jul-14 12:28N 34°24' E 134°13'5 9.8
2018-Jul-14 11:55N 34°26' E 134°07'5 9.5
2018-Jul-14 11:25N 34°25' E 134°01'18 0.6
2018-Jul-13 06:37N 34°25' E 134°23'311.8
2018-Jul-13 06:22N 34°26' E 134°26'412.1
2018-Jul-13 06:00N 34°28' E 134°31'611.7
2018-Jul-13 05:30N 34°30' E 134°38'611.7
2018-Jul-13 05:00N 34°32' E 134°44'510.8
2018-Jul-13 04:30N 34°34' E 134°50'5 9.0
2018-Jul-13 04:00N 34°36' E 134°55'5 8.5
2018-Jul-13 03:24N 34°37' E 135°01'3 8.2
2018-Jul-13 03:00N 34°36' E 135°05'611.3
2018-Jul-13 02:30N 34°37' E 135°12'612.0
2018-Jul-13 02:01N 34°39' E 135°18'2 4.5
2018-Jul-13 01:30N 34°41' E 135°17'2 4.5
2018-Jul-13 01:00N 34°40' E 135°14'0 0.1
2018-Jul-13 00:30N 34°40' E 135°14'0 0.3
2018-Jul-13 00:00N 34°40' E 135°14'2 4.6
2018-Jul-12 23:30N 34°38' E 135°16'1 1.5
2018-Jul-12 22:44N 34°37' E 135°15'0 0.0
2018-Jul-12 22:29N 34°37' E 135°15'0 0.0
2018-Jul-12 21:50N 34°37' E 135°15'0 0.0
2018-Jul-12 21:29N 34°37' E 135°15'0 0.0
2018-Jul-12 20:56N 34°37' E 135°15'0 0.0
2018-Jul-12 20:29N 34°37' E 135°15'0 0.1
2018-Jul-12 19:59N 34°37' E 135°15'0 0.2
2018-Jul-12 19:29N 34°37' E 135°15'0 0.0
2018-Jul-12 18:59N 34°37' E 135°15'0 0.0
2018-Jul-12 18:29N 34°37' E 135°15'0 0.0
2018-Jul-12 17:59N 34°37' E 135°15'0 0.0
2018-Jul-12 17:29N 34°37' E 135°15'0 0.1
2018-Jul-12 17:00N 34°37' E 135°15'4 9.0
2018-Jul-12 16:30N 34°35' E 135°10'510.7
2018-Jul-12 16:00N 34°35' E 135°04'612.4
2018-Jul-12 15:30N 34°36' E 134°56'611.7
2018-Jul-12 14:59N 34°33' E 134°49'611.8
2018-Jul-12 14:30N 34°31' E 134°43'612.1
2018-Jul-12 14:00N 34°29' E 134°36'612.7
2018-Jul-12 13:30N 34°26' E 134°29'612.1
2018-Jul-12 13:00N 34°24' E 134°22'611.3
2018-Jul-12 12:28N 34°24' E 134°15'5 0.2
2018-Jul-11 10:11N 34°25' E 134°20'413.3
2018-Jul-11 09:54N 34°26' E 134°25'513.6
2018-Jul-11 09:30N 34°28' E 134°31'713.5
2018-Jul-11 09:00N 34°31' E 134°38'713.6
2018-Jul-11 08:31N 34°33' E 134°46'815.3
2018-Jul-11 08:01N 34°36' E 134°54'713.6
2018-Jul-11 07:30N 34°36' E 135°03'611.9
2018-Jul-11 07:00N 34°36' E 135°10'611.6
2018-Jul-11 06:30N 34°38' E 135°17'3 5.7
2018-Jul-11 06:00N 34°41' E 135°17'0 0.0
2018-Jul-11 05:30N 34°41' E 135°17'0 0.7
2018-Jul-11 05:00N 34°41' E 135°16'2 3.9
2018-Jul-11 04:30N 34°39' E 135°15'0 0.9
2018-Jul-11 04:00N 34°39' E 135°15'2 4.7
2018-Jul-11 03:30N 34°37' E 135°15'0 0.0
2018-Jul-11 02:57N 34°37' E 135°15'0 0.1
2018-Jul-11 02:27N 34°37' E 135°15'0 0.0
2018-Jul-11 02:00N 34°37' E 135°15'0 0.0
2018-Jul-11 01:27N 34°37' E 135°15'0 0.0
2018-Jul-11 00:57N 34°37' E 135°15'0 0.0
2018-Jul-11 00:27N 34°37' E 135°15'1 1.6
2018-Jul-11 00:00N 34°36' E 135°14'612.3
2018-Jul-10 23:30N 34°35' E 135°07'611.8
2018-Jul-10 23:00N 34°37' E 135°00'611.8
2018-Jul-10 22:30N 34°35' E 134°53'810.9
2018-Jul-10 21:46N 34°32' E 134°45'311.5
2018-Jul-10 21:30N 34°31' E 134°41'611.9
2018-Jul-10 21:00N 34°28' E 134°34'612.1
2018-Jul-10 20:30N 34°26' E 134°28'712.1
2018-Jul-10 19:58N 34°24' E 134°20'2 0.1
2018-Jul-09 11:12N 34°25' E 134°18'313.1
2018-Jul-09 11:00N 34°25' E 134°22'612.5
2018-Jul-09 10:30N 34°28' E 134°29'612.4
2018-Jul-09 10:00N 34°30' E 134°36'612.5
2018-Jul-09 09:30N 34°32' E 134°43'714.4
2018-Jul-09 09:00N 34°35' E 134°51'815.2
2018-Jul-09 08:30N 34°38' E 134°60'713.2
2018-Jul-09 08:00N 34°37' E 135°07'611.7
2018-Jul-09 07:29N 34°37' E 135°15'3 5.4
2018-Jul-09 07:01N 34°40' E 135°14'0 0.0
2018-Jul-09 06:20N 34°40' E 135°14'0 0.0
2018-Jul-09 05:56N 34°40' E 135°14'0 0.0
2018-Jul-09 05:26N 34°40' E 135°14'0 0.0
2018-Jul-09 04:56N 34°40' E 135°14'0 0.0
2018-Jul-09 04:26N 34°40' E 135°14'0 0.0
2018-Jul-09 03:56N 34°40' E 135°14'1 1.8
2018-Jul-09 03:31N 34°40' E 135°15'1 2.9
2018-Jul-09 03:00N 34°41' E 135°16'0 0.6
2018-Jul-09 02:30N 34°41' E 135°17'0 0.0
2018-Jul-09 02:01N 34°41' E 135°17'0 0.3
2018-Jul-09 01:31N 34°41' E 135°17'1 1.7
2018-Jul-09 01:01N 34°41' E 135°18'510.0
2018-Jul-09 00:31N 34°37' E 135°14'4 7.3
2018-Jul-09 00:00N 34°40' E 135°11'0 0.0
2018-Jul-08 23:18N 34°40' E 135°11'0 0.0
2018-Jul-08 23:00N 34°40' E 135°11'0 0.0
2018-Jul-08 22:27N 34°40' E 135°11'0 0.0
2018-Jul-08 21:54N 34°40' E 135°11'0 0.0
2018-Jul-08 21:30N 34°40' E 135°11'0 0.0
2018-Jul-08 21:00N 34°40' E 135°11'0 0.0
2018-Jul-08 20:30N 34°40' E 135°11'0 0.0
2018-Jul-08 20:00N 34°40' E 135°11'0 0.0
2018-Jul-08 19:30N 34°40' E 135°11'0 0.0
2018-Jul-08 19:00N 34°40' E 135°11'0 0.0
2018-Jul-08 18:30N 34°40' E 135°11'0 0.0
2018-Jul-08 18:00N 34°40' E 135°11'0 0.0
2018-Jul-08 17:24N 34°40' E 135°11'0 0.0
2018-Jul-08 17:00N 34°40' E 135°11'0 0.0
2018-Jul-08 16:27N 34°40' E 135°11'0 0.0
2018-Jul-08 16:00N 34°40' E 135°11'0 0.0
2018-Jul-08 15:30N 34°40' E 135°11'0 0.0
2018-Jul-08 15:00N 34°40' E 135°11'0 0.0
2018-Jul-08 14:30N 34°40' E 135°11'0 0.0
2018-Jul-08 14:00N 34°40' E 135°11'0 0.0
2018-Jul-08 13:30N 34°40' E 135°11'0 0.0
2018-Jul-08 13:00N 34°40' E 135°11'0 0.0
2018-Jul-08 12:15N 34°40' E 135°11'0 0.0
2018-Jul-08 12:00N 34°40' E 135°11'0 0.0
2018-Jul-08 11:30N 34°40' E 135°11'0 0.0
2018-Jul-08 11:00N 34°40' E 135°11'0 0.0
2018-Jul-08 10:30N 34°40' E 135°11'0 0.0
2018-Jul-08 10:00N 34°40' E 135°11'0 0.0
2018-Jul-08 09:30N 34°40' E 135°11'0 0.0
2018-Jul-08 08:57N 34°40' E 135°11'0 0.0
2018-Jul-08 08:30N 34°40' E 135°11'0 0.0
2018-Jul-08 08:00N 34°40' E 135°11'0 0.0
2018-Jul-08 07:30N 34°40' E 135°11'0 0.0
2018-Jul-08 07:00N 34°40' E 135°11'0 0.0
2018-Jul-08 06:30N 34°40' E 135°11'0 0.0
2018-Jul-08 06:00N 34°40' E 135°11'0 0.0
2018-Jul-08 05:30N 34°40' E 135°11'0 0.0
2018-Jul-08 05:00N 34°40' E 135°11'0 0.0
2018-Jul-08 04:30N 34°40' E 135°11'0 0.0
2018-Jul-08 04:00N 34°40' E 135°11'0 0.0
2018-Jul-08 03:30N 34°40' E 135°11'0 0.0
2018-Jul-08 03:00N 34°40' E 135°11'0 0.0
2018-Jul-08 02:30N 34°40' E 135°11'0 0.0
2018-Jul-08 02:00N 34°40' E 135°11'0 0.0
2018-Jul-08 01:30N 34°40' E 135°11'0 0.0
2018-Jul-08 01:00N 34°40' E 135°11'0 0.0
2018-Jul-08 00:30N 34°40' E 135°11'0 0.0
2018-Jul-07 23:54N 34°40' E 135°11'0 0.0
2018-Jul-07 23:30N 34°40' E 135°11'0 0.0
2018-Jul-07 23:00N 34°40' E 135°11'4 8.0
2018-Jul-07 22:30N 34°37' E 135°08'0 0.1
2018-Jul-07 21:59N 34°37' E 135°08'0 0.0
2018-Jul-07 21:29N 34°37' E 135°08'0 0.0
2018-Jul-07 20:56N 34°37' E 135°08'0 0.0
2018-Jul-07 20:20N 34°37' E 135°08'0 0.1
2018-Jul-07 19:59N 34°37' E 135°08'0 0.1
2018-Jul-07 19:29N 34°37' E 135°08'4 7.5
2018-Jul-07 19:00N 34°35' E 135°04'5 9.4
2018-Jul-07 18:28N 34°37' E 134°59'510.4
2018-Jul-07 18:00N 34°35' E 134°54'710.5
2018-Jul-07 17:20N 34°32' E 134°46'411.8
2018-Jul-07 17:00N 34°31' E 134°42'611.7
2018-Jul-07 16:30N 34°28' E 134°35'611.7
2018-Jul-07 16:00N 34°26' E 134°28'611.0
2018-Jul-07 15:28N 34°24' E 134°22'1 0.0
2018-Jul-06 12:26N 34°25' E 134°21'511.9
2018-Jul-06 12:00N 34°27' E 134°27'611.7
2018-Jul-06 11:30N 34°30' E 134°34'  

Dump ship's entire track history